sensor_id;sensor_type;location;lat;lon;timestamp;pressure;altitude;pressure_sealevel;temperature;humidity
66857;BME280;53766;50.280;19.160;2023-02-12T00:02:16;99649.38;;;15.66;47.97
66857;BME280;53766;50.280;19.160;2023-02-12T00:04:47;99661.69;;;15.67;48.11
66857;BME280;53766;50.280;19.160;2023-02-12T00:07:14;99665.31;;;15.66;48.14
66857;BME280;53766;50.280;19.160;2023-02-12T00:09:42;99659.16;;;15.65;48.20
66857;BME280;53766;50.280;19.160;2023-02-12T00:12:10;99663.66;;;15.64;48.17
66857;BME280;53766;50.280;19.160;2023-02-12T00:14:37;99662.00;;;15.63;48.00
66857;BME280;53766;50.280;19.160;2023-02-12T00:17:04;99658.34;;;15.64;48.18
66857;BME280;53766;50.280;19.160;2023-02-12T00:19:31;99659.16;;;15.65;47.93
66857;BME280;53766;50.280;19.160;2023-02-12T00:21:59;99660.31;;;15.62;48.08
66857;BME280;53766;50.280;19.160;2023-02-12T00:24:26;99658.34;;;15.64;48.01
66857;BME280;53766;50.280;19.160;2023-02-12T00:26:53;99664.66;;;15.63;48.11
66857;BME280;53766;50.280;19.160;2023-02-12T00:29:21;99667.31;;;15.63;48.07
66857;BME280;53766;50.280;19.160;2023-02-12T00:31:48;99674.28;;;15.64;48.09
66857;BME280;53766;50.280;19.160;2023-02-12T00:34:15;99678.75;;;15.64;47.74
66857;BME280;53766;50.280;19.160;2023-02-12T00:36:43;99673.44;;;15.64;47.81
66857;BME280;53766;50.280;19.160;2023-02-12T00:39:10;99668.97;;;15.64;47.98
66857;BME280;53766;50.280;19.160;2023-02-12T00:41:38;99670.94;;;15.62;48.08
66857;BME280;53766;50.280;19.160;2023-02-12T00:44:05;99679.91;;;15.61;47.83
66857;BME280;53766;50.280;19.160;2023-02-12T00:46:32;99685.22;;;15.61;47.89
66857;BME280;53766;50.280;19.160;2023-02-12T00:48:59;99683.25;;;15.63;47.84
66857;BME280;53766;50.280;19.160;2023-02-12T00:51:27;99684.91;;;15.64;47.78
66857;BME280;53766;50.280;19.160;2023-02-12T00:53:54;99675.94;;;15.66;47.89
66857;BME280;53766;50.280;19.160;2023-02-12T00:56:21;99684.56;;;15.68;47.80
66857;BME280;53766;50.280;19.160;2023-02-12T00:58:48;99683.75;;;15.67;47.90
66857;BME280;53766;50.280;19.160;2023-02-12T01:01:17;99679.25;;;15.68;47.90
66857;BME280;53766;50.280;19.160;2023-02-12T01:03:44;99685.44;;;15.68;47.98
66857;BME280;53766;50.280;19.160;2023-02-12T01:06:11;99685.59;;;15.67;47.97
66857;BME280;53766;50.280;19.160;2023-02-12T01:08:38;99697.84;;;15.68;48.00
66857;BME280;53766;50.280;19.160;2023-02-12T01:11:06;99692.53;;;15.68;48.01
66857;BME280;53766;50.280;19.160;2023-02-12T01:13:33;99696.06;;;15.68;48.00
66857;BME280;53766;50.280;19.160;2023-02-12T01:18:32;99690.88;;;15.67;47.94
66857;BME280;53766;50.280;19.160;2023-02-12T01:20:59;99699.53;;;15.69;47.91
66857;BME280;53766;50.280;19.160;2023-02-12T01:23:27;99701.06;;;15.71;47.75
66857;BME280;53766;50.280;19.160;2023-02-12T01:25:55;99696.88;;;15.69;47.87
66857;BME280;53766;50.280;19.160;2023-02-12T01:28:24;99700.22;;;15.71;47.77
66857;BME280;53766;50.280;19.160;2023-02-12T01:30:51;99703.84;;;15.70;47.74
66857;BME280;53766;50.280;19.160;2023-02-12T01:33:18;99703.84;;;15.70;47.80
66857;BME280;53766;50.280;19.160;2023-02-12T01:35:47;99703.84;;;15.70;47.84
66857;BME280;53766;50.280;19.160;2023-02-12T01:38:14;99718.13;;;15.69;48.02
66857;BME280;53766;50.280;19.160;2023-02-12T01:40:41;99718.97;;;15.69;47.77
66857;BME280;53766;50.280;19.160;2023-02-12T01:43:10;99718.97;;;15.69;47.90
66857;BME280;53766;50.280;19.160;2023-02-12T01:45:42;99722.44;;;15.70;47.78
66857;BME280;53766;50.280;19.160;2023-02-12T01:48:12;99723.44;;;15.69;47.85
66857;BME280;53766;50.280;19.160;2023-02-12T01:50:40;99717.84;;;15.72;47.85
66857;BME280;53766;50.280;19.160;2023-02-12T01:53:08;99725.09;;;15.70;47.97
66857;BME280;53766;50.280;19.160;2023-02-12T01:55:35;99730.72;;;15.67;47.75
66857;BME280;53766;50.280;19.160;2023-02-12T01:58:03;99739.38;;;15.69;47.74
66857;BME280;53766;50.280;19.160;2023-02-12T02:00:30;99737.69;;;15.68;47.72
66857;BME280;53766;50.280;19.160;2023-02-12T02:02:59;99746.34;;;15.70;47.84
66857;BME280;53766;50.280;19.160;2023-02-12T02:05:37;99734.88;;;15.69;47.64
66857;BME280;53766;50.280;19.160;2023-02-12T02:08:07;99743.88;;;15.68;47.81
66857;BME280;53766;50.280;19.160;2023-02-12T02:10:35;99747.34;;;15.69;47.64
66857;BME280;53766;50.280;19.160;2023-02-12T02:13:02;99743.88;;;15.68;47.76
66857;BME280;53766;50.280;19.160;2023-02-12T02:15:49;99756.28;;;15.68;47.66
66857;BME280;53766;50.280;19.160;2023-02-12T02:18:25;99750.00;;;15.69;47.73
66857;BME280;53766;50.280;19.160;2023-02-12T02:31:31;99753.63;;;15.68;47.77
66857;BME280;53766;50.280;19.160;2023-02-12T02:34:02;99753.63;;;15.68;47.71
66857;BME280;53766;50.280;19.160;2023-02-12T02:36:45;99765.25;;;15.67;47.70
66857;BME280;53766;50.280;19.160;2023-02-12T02:39:35;99779.22;;;15.69;47.52
66857;BME280;53766;50.280;19.160;2023-02-12T02:42:08;99785.50;;;15.68;47.68
66857;BME280;53766;50.280;19.160;2023-02-12T02:47:13;99788.47;;;15.64;47.59
66857;BME280;53766;50.280;19.160;2023-02-12T02:49:56;99782.84;;;15.68;47.65
66857;BME280;53766;50.280;19.160;2023-02-12T02:52:28;99786.34;;;15.68;47.57
66857;BME280;53766;50.280;19.160;2023-02-12T02:54:59;99794.47;;;15.67;47.55
66857;BME280;53766;50.280;19.160;2023-02-12T02:57:34;99793.66;;;15.66;47.49
66857;BME280;53766;50.280;19.160;2023-02-12T03:00:16;99798.78;;;15.68;47.53
66857;BME280;53766;50.280;19.160;2023-02-12T03:02:47;99804.25;;;15.66;47.48
66857;BME280;53766;50.280;19.160;2023-02-12T03:05:17;99807.75;;;15.67;47.53
66857;BME280;53766;50.280;19.160;2023-02-12T03:07:53;99810.41;;;15.67;47.40
66857;BME280;53766;50.280;19.160;2023-02-12T03:10:22;99814.03;;;15.66;47.67
66857;BME280;53766;50.280;19.160;2023-02-12T03:12:54;99818.50;;;15.65;47.57
66857;BME280;53766;50.280;19.160;2023-02-12T03:15:24;99819.34;;;15.66;47.46
66857;BME280;53766;50.280;19.160;2023-02-12T03:17:54;99829.00;;;15.67;47.47
66857;BME280;53766;50.280;19.160;2023-02-12T03:20:25;99826.34;;;15.67;47.38
66857;BME280;53766;50.280;19.160;2023-02-12T03:23:00;99843.09;;;15.67;47.38
66857;BME280;53766;50.280;19.160;2023-02-12T03:26:17;99847.72;;;15.65;47.53
66857;BME280;53766;50.280;19.160;2023-02-12T03:28:42;99845.91;;;15.66;47.34
66857;BME280;53766;50.280;19.160;2023-02-12T03:33:55;99851.22;;;15.66;47.47
66857;BME280;53766;50.280;19.160;2023-02-12T03:36:44;99859.19;;;15.66;47.48
66857;BME280;53766;50.280;19.160;2023-02-12T03:41:49;99876.94;;;15.65;47.36
66857;BME280;53766;50.280;19.160;2023-02-12T03:44:34;99874.28;;;15.65;47.26
66857;BME280;53766;50.280;19.160;2023-02-12T03:49:38;99886.75;;;15.64;47.42
66857;BME280;53766;50.280;19.160;2023-02-12T03:52:11;99893.72;;;15.66;47.39
66857;BME280;53766;50.280;19.160;2023-02-12T03:54:39;99891.22;;;15.64;47.49
66857;BME280;53766;50.280;19.160;2023-02-12T03:57:07;99900.03;;;15.64;47.41
66857;BME280;53766;50.280;19.160;2023-02-12T03:59:37;99902.66;;;15.64;47.41
66857;BME280;53766;50.280;19.160;2023-02-12T04:02:04;99909.00;;;15.63;47.30
66857;BME280;53766;50.280;19.160;2023-02-12T04:04:33;99902.66;;;15.64;47.29
66857;BME280;53766;50.280;19.160;2023-02-12T04:07:00;99914.94;;;15.66;47.39
66857;BME280;53766;50.280;19.160;2023-02-12T04:09:28;99913.28;;;15.64;47.16
66857;BME280;53766;50.280;19.160;2023-02-12T04:20:03;99929.22;;;15.64;47.18
66857;BME280;53766;50.280;19.160;2023-02-12T04:22:42;99934.69;;;15.63;47.15
66857;BME280;53766;50.280;19.160;2023-02-12T04:30:32;99942.50;;;15.64;47.19
66857;BME280;53766;50.280;19.160;2023-02-12T04:33:02;99944.34;;;15.64;47.17
66857;BME280;53766;50.280;19.160;2023-02-12T04:35:32;99943.50;;;15.63;47.05
66857;BME280;53766;50.280;19.160;2023-02-12T04:38:07;99945.16;;;15.64;47.27
66857;BME280;53766;50.280;19.160;2023-02-12T04:40:39;99955.78;;;15.64;47.17
66857;BME280;53766;50.280;19.160;2023-02-12T04:43:07;99954.13;;;15.63;47.05
66857;BME280;53766;50.280;19.160;2023-02-12T04:45:35;99956.94;;;15.62;47.20
66857;BME280;53766;50.280;19.160;2023-02-12T04:48:02;99959.59;;;15.62;47.06
66857;BME280;53766;50.280;19.160;2023-02-12T04:50:38;99957.75;;;15.62;47.07
66857;BME280;53766;50.280;19.160;2023-02-12T04:53:05;99971.03;;;15.62;47.02
66857;BME280;53766;50.280;19.160;2023-02-12T04:55:33;99970.06;;;15.63;47.17
66857;BME280;53766;50.280;19.160;2023-02-12T04:58:01;99970.22;;;15.62;47.13
66857;BME280;53766;50.280;19.160;2023-02-12T05:00:28;99976.34;;;15.62;46.98
66857;BME280;53766;50.280;19.160;2023-02-12T05:02:56;99980.69;;;15.63;46.92
66857;BME280;53766;50.280;19.160;2023-02-12T05:05:24;99986.97;;;15.62;46.97
66857;BME280;53766;50.280;19.160;2023-02-12T05:07:51;99987.97;;;15.61;47.06
66857;BME280;53766;50.280;19.160;2023-02-12T05:10:18;99987.97;;;15.61;46.99
66857;BME280;53766;50.280;19.160;2023-02-12T05:12:45;99994.13;;;15.62;47.06
66857;BME280;53766;50.280;19.160;2023-02-12T05:15:13;99993.28;;;15.61;47.07
66857;BME280;53766;50.280;19.160;2023-02-12T05:17:40;99996.63;;;15.63;47.05
66857;BME280;53766;50.280;19.160;2023-02-12T05:20:07;100000.25;;;15.62;46.99
66857;BME280;53766;50.280;19.160;2023-02-12T05:22:34;100005.56;;;15.62;46.83
66857;BME280;53766;50.280;19.160;2023-02-12T05:25:02;100011.88;;;15.61;47.04
66857;BME280;53766;50.280;19.160;2023-02-12T05:27:29;100010.03;;;15.62;47.00
66857;BME280;53766;50.280;19.160;2023-02-12T05:29:57;100015.50;;;15.60;46.94
66857;BME280;53766;50.280;19.160;2023-02-12T05:32:24;100010.88;;;15.62;47.15
66857;BME280;53766;50.280;19.160;2023-02-12T05:34:51;100021.50;;;15.62;47.03
66857;BME280;53766;50.280;19.160;2023-02-12T05:37:18;100027.63;;;15.63;47.03
66857;BME280;53766;50.280;19.160;2023-02-12T05:39:47;100028.50;;;15.63;47.11
66857;BME280;53766;50.280;19.160;2023-02-12T05:42:14;100039.94;;;15.64;47.17
66857;BME280;53766;50.280;19.160;2023-02-12T05:44:41;100049.75;;;15.63;47.19
66857;BME280;53766;50.280;19.160;2023-02-12T05:47:09;100056.03;;;15.62;47.16
66857;BME280;53766;50.280;19.160;2023-02-12T05:49:36;100045.53;;;15.61;47.25
66857;BME280;53766;50.280;19.160;2023-02-12T05:52:04;100061.47;;;15.61;47.12
66857;BME280;53766;50.280;19.160;2023-02-12T05:54:31;100064.00;;;15.62;47.15
66857;BME280;53766;50.280;19.160;2023-02-12T05:56:58;100071.28;;;15.60;47.17
66857;BME280;53766;50.280;19.160;2023-02-12T05:59:25;100072.09;;;15.61;47.28
66857;BME280;53766;50.280;19.160;2023-02-12T06:01:53;100086.38;;;15.60;47.22
66857;BME280;53766;50.280;19.160;2023-02-12T06:04:22;100092.50;;;15.60;46.93
66857;BME280;53766;50.280;19.160;2023-02-12T06:06:50;100085.53;;;15.59;47.10
66857;BME280;53766;50.280;19.160;2023-02-12T06:09:18;100094.19;;;15.61;47.00
66857;BME280;53766;50.280;19.160;2023-02-12T06:11:45;100097.81;;;15.60;46.97
66857;BME280;53766;50.280;19.160;2023-02-12T06:14:13;100104.81;;;15.61;46.79
66857;BME280;53766;50.280;19.160;2023-02-12T06:16:43;100117.41;;;15.59;46.98
66857;BME280;53766;50.280;19.160;2023-02-12T06:19:11;100118.09;;;15.61;46.75
66857;BME280;53766;50.280;19.160;2023-02-12T06:21:38;100120.91;;;15.60;46.67
66857;BME280;53766;50.280;19.160;2023-02-12T06:24:05;100127.72;;;15.62;46.83
66857;BME280;53766;50.280;19.160;2023-02-12T06:26:32;100121.88;;;15.59;46.83
66857;BME280;53766;50.280;19.160;2023-02-12T06:29:00;100129.69;;;15.60;46.78
66857;BME280;53766;50.280;19.160;2023-02-12T06:31:28;100126.06;;;15.61;46.71
66857;BME280;53766;50.280;19.160;2023-02-12T06:33:57;100129.44;;;15.63;46.64
66857;BME280;53766;50.280;19.160;2023-02-12T06:36:24;100139.19;;;15.63;46.49
66857;BME280;53766;50.280;19.160;2023-02-12T06:38:52;100142.69;;;15.63;46.50
66857;BME280;53766;50.280;19.160;2023-02-12T06:41:19;100147.03;;;15.64;46.46
66857;BME280;53766;50.280;19.160;2023-02-12T06:43:47;100149.69;;;15.64;46.49
66857;BME280;53766;50.280;19.160;2023-02-12T06:46:15;100151.50;;;15.64;46.60
66857;BME280;53766;50.280;19.160;2023-02-12T06:48:42;100152.34;;;15.64;46.48
66857;BME280;53766;50.280;19.160;2023-02-12T06:51:14;100160.31;;;15.64;46.44
66857;BME280;53766;50.280;19.160;2023-02-12T06:53:42;100159.31;;;15.66;46.46
66857;BME280;53766;50.280;19.160;2023-02-12T06:56:11;100164.78;;;15.64;46.69
66857;BME280;53766;50.280;19.160;2023-02-12T06:58:40;100164.63;;;15.66;46.42
66857;BME280;53766;50.280;19.160;2023-02-12T07:01:08;100160.16;;;15.66;46.37
66857;BME280;53766;50.280;19.160;2023-02-12T07:03:40;100166.88;;;15.60;46.62
66857;BME280;53766;50.280;19.160;2023-02-12T07:06:08;100171.34;;;15.60;46.37
66857;BME280;53766;50.280;19.160;2023-02-12T07:08:35;100174.16;;;15.58;46.18
66857;BME280;53766;50.280;19.160;2023-02-12T07:11:03;100178.63;;;15.58;46.13
66857;BME280;53766;50.280;19.160;2023-02-12T07:13:31;100182.25;;;15.57;45.92
66857;BME280;53766;50.280;19.160;2023-02-12T07:16:04;100175.28;;;15.56;45.67
66857;BME280;53766;50.280;19.160;2023-02-12T07:18:32;100177.09;;;15.55;45.67
66857;BME280;53766;50.280;19.160;2023-02-12T07:20:59;100185.06;;;15.55;45.91
66857;BME280;53766;50.280;19.160;2023-02-12T07:23:27;100192.03;;;15.56;45.67
66857;BME280;53766;50.280;19.160;2023-02-12T07:25:55;100180.59;;;15.56;45.81
66857;BME280;53766;50.280;19.160;2023-02-12T07:28:22;100191.22;;;15.56;45.81
66857;BME280;53766;50.280;19.160;2023-02-12T07:30:50;100190.09;;;15.58;45.58
66857;BME280;53766;50.280;19.160;2023-02-12T07:33:17;100190.09;;;15.58;45.93
66857;BME280;53766;50.280;19.160;2023-02-12T07:35:45;100204.06;;;15.60;45.93
66857;BME280;53766;50.280;19.160;2023-02-12T07:38:12;100206.59;;;15.62;45.97
66857;BME280;53766;50.280;19.160;2023-02-12T07:40:39;100207.41;;;15.62;45.83
66857;BME280;53766;50.280;19.160;2023-02-12T07:43:07;100221.38;;;15.64;45.94
66857;BME280;53766;50.280;19.160;2023-02-12T07:45:34;100218.72;;;15.64;46.01
66857;BME280;53766;50.280;19.160;2023-02-12T07:48:02;100219.44;;;15.67;46.14
66857;BME280;53766;50.280;19.160;2023-02-12T07:50:29;100219.44;;;15.67;46.13
66857;BME280;53766;50.280;19.160;2023-02-12T07:52:57;100226.41;;;15.68;46.23
66857;BME280;53766;50.280;19.160;2023-02-12T07:55:25;100224.75;;;15.67;46.11
66857;BME280;53766;50.280;19.160;2023-02-12T07:57:52;100228.22;;;15.67;46.23
66857;BME280;53766;50.280;19.160;2023-02-12T08:00:19;100230.06;;;15.67;46.39
66857;BME280;53766;50.280;19.160;2023-02-12T08:02:50;100231.72;;;15.68;46.30
66857;BME280;53766;50.280;19.160;2023-02-12T08:05:19;100246.00;;;15.67;46.35
66857;BME280;53766;50.280;19.160;2023-02-12T08:07:46;100251.31;;;15.67;46.41
66857;BME280;53766;50.280;19.160;2023-02-12T08:10:13;100255.50;;;15.69;46.27
66857;BME280;53766;50.280;19.160;2023-02-12T08:12:41;100253.81;;;15.68;46.37
66857;BME280;53766;50.280;19.160;2023-02-12T08:15:08;100257.44;;;15.67;46.36
66857;BME280;53766;50.280;19.160;2023-02-12T08:17:35;100266.41;;;15.66;46.45
66857;BME280;53766;50.280;19.160;2023-02-12T08:20:02;100268.19;;;15.66;46.45
66857;BME280;53766;50.280;19.160;2023-02-12T08:22:30;100273.50;;;15.66;46.33
66857;BME280;53766;50.280;19.160;2023-02-12T08:24:57;100281.47;;;15.66;46.40
66857;BME280;53766;50.280;19.160;2023-02-12T08:27:24;100279.69;;;15.66;46.24
66857;BME280;53766;50.280;19.160;2023-02-12T08:29:51;100281.47;;;15.66;46.37
66857;BME280;53766;50.280;19.160;2023-02-12T08:32:19;100283.19;;;15.67;46.48
66857;BME280;53766;50.280;19.160;2023-02-12T08:34:47;100281.34;;;15.67;46.44
66857;BME280;53766;50.280;19.160;2023-02-12T08:37:14;100286.78;;;15.66;46.13
66857;BME280;53766;50.280;19.160;2023-02-12T08:39:41;100285.69;;;15.68;46.39
66857;BME280;53766;50.280;19.160;2023-02-12T08:42:09;100283.19;;;15.67;46.24
66857;BME280;53766;50.280;19.160;2023-02-12T08:44:36;100284.84;;;15.68;46.39
66857;BME280;53766;50.280;19.160;2023-02-12T08:47:04;100284.84;;;15.68;46.15
66857;BME280;53766;50.280;19.160;2023-02-12T08:49:33;100290.31;;;15.66;46.38
66857;BME280;53766;50.280;19.160;2023-02-12T08:52:00;100295.47;;;15.68;46.32
66857;BME280;53766;50.280;19.160;2023-02-12T08:54:29;100297.16;;;15.69;46.30
66857;BME280;53766;50.280;19.160;2023-02-12T08:56:58;100288.34;;;15.68;46.32
66857;BME280;53766;50.280;19.160;2023-02-12T08:59:25;100298.13;;;15.68;46.25
66857;BME280;53766;50.280;19.160;2023-02-12T09:01:53;100305.00;;;15.70;46.32
66857;BME280;53766;50.280;19.160;2023-02-12T09:04:24;100306.69;;;15.71;46.42
66857;BME280;53766;50.280;19.160;2023-02-12T09:06:52;100308.38;;;15.72;46.50
66857;BME280;53766;50.280;19.160;2023-02-12T09:09:19;100300.25;;;15.74;46.48
66857;BME280;53766;50.280;19.160;2023-02-12T09:11:47;100309.22;;;15.73;46.48
66857;BME280;53766;50.280;19.160;2023-02-12T09:14:16;100307.25;;;15.75;46.50
66857;BME280;53766;50.280;19.160;2023-02-12T09:16:45;100304.31;;;15.78;46.42
66857;BME280;53766;50.280;19.160;2023-02-12T09:19:13;100314.50;;;15.82;46.48
66857;BME280;53766;50.280;19.160;2023-02-12T09:21:40;100309.06;;;15.84;46.47
66857;BME280;53766;50.280;19.160;2023-02-12T09:24:09;100314.25;;;15.86;46.43
66857;BME280;53766;50.280;19.160;2023-02-12T09:26:37;100318.44;;;15.88;46.34
66857;BME280;53766;50.280;19.160;2023-02-12T09:29:05;100316.47;;;15.90;46.56
66857;BME280;53766;50.280;19.160;2023-02-12T09:31:32;100325.84;;;15.94;46.50
66857;BME280;53766;50.280;19.160;2023-02-12T09:34:00;100326.25;;;15.99;46.35
66857;BME280;53766;50.280;19.160;2023-02-12T09:36:28;100324.28;;;16.01;46.36
66857;BME280;53766;50.280;19.160;2023-02-12T09:38:55;100328.47;;;16.04;46.33
66857;BME280;53766;50.280;19.160;2023-02-12T09:43:55;100327.34;;;16.07;46.41
66857;BME280;53766;50.280;19.160;2023-02-12T09:46:40;100328.72;;;16.11;46.48
66857;BME280;53766;50.280;19.160;2023-02-12T09:49:09;100334.06;;;16.11;46.40
66857;BME280;53766;50.280;19.160;2023-02-12T09:51:41;100332.09;;;16.13;46.43
66857;BME280;53766;50.280;19.160;2023-02-12T09:54:11;100344.13;;;16.17;46.40
66857;BME280;53766;50.280;19.160;2023-02-12T09:56:41;100344.13;;;16.17;46.40
66857;BME280;53766;50.280;19.160;2023-02-12T09:59:10;100348.03;;;16.22;46.48
66857;BME280;53766;50.280;19.160;2023-02-12T10:01:40;100350.53;;;16.24;46.39
66857;BME280;53766;50.280;19.160;2023-02-12T10:04:07;100345.91;;;16.26;46.34
66857;BME280;53766;50.280;19.160;2023-02-12T10:06:40;100342.28;;;16.27;46.47
66857;BME280;53766;50.280;19.160;2023-02-12T10:09:13;100340.31;;;16.29;46.41
66857;BME280;53766;50.280;19.160;2023-02-12T10:11:53;100335.69;;;16.31;46.43
66857;BME280;53766;50.280;19.160;2023-02-12T10:17:14;100335.41;;;16.34;46.35
66857;BME280;53766;50.280;19.160;2023-02-12T10:23:00;100342.41;;;16.35;46.37
66857;BME280;53766;50.280;19.160;2023-02-12T10:31:01;100356.09;;;16.40;46.61
66857;BME280;53766;50.280;19.160;2023-02-12T10:33:38;100344.63;;;16.40;46.51
66857;BME280;53766;50.280;19.160;2023-02-12T10:39:04;100352.44;;;16.41;46.49
66857;BME280;53766;50.280;19.160;2023-02-12T10:41:32;100350.91;;;16.39;46.56
66857;BME280;53766;50.280;19.160;2023-02-12T10:44:01;100355.28;;;16.40;46.64
66857;BME280;53766;50.280;19.160;2023-02-12T10:46:29;100359.72;;;16.39;46.67
66857;BME280;53766;50.280;19.160;2023-02-12T10:48:57;100361.41;;;16.40;46.62
66857;BME280;53766;50.280;19.160;2023-02-12T10:56:59;100354.41;;;16.39;46.84
66857;BME280;53766;50.280;19.160;2023-02-12T10:59:33;100358.75;;;16.40;46.78
66857;BME280;53766;50.280;19.160;2023-02-12T11:02:01;100348.81;;;16.42;46.85
66857;BME280;53766;50.280;19.160;2023-02-12T11:04:31;100355.81;;;16.43;46.86
66857;BME280;53766;50.280;19.160;2023-02-12T11:07:03;100356.66;;;16.44;47.02
66857;BME280;53766;50.280;19.160;2023-02-12T11:09:39;100363.78;;;16.43;46.86
66857;BME280;53766;50.280;19.160;2023-02-12T11:12:16;100355.81;;;16.43;47.05
66857;BME280;53766;50.280;19.160;2023-02-12T11:14:51;100356.34;;;16.47;47.26
66857;BME280;53766;50.280;19.160;2023-02-12T11:17:36;100354.25;;;16.51;47.50
66857;BME280;53766;50.280;19.160;2023-02-12T11:23:05;100350.16;;;16.56;47.45
66857;BME280;53766;50.280;19.160;2023-02-12T11:25:35;100348.63;;;16.54;47.33
66857;BME280;53766;50.280;19.160;2023-02-12T11:28:04;100342.31;;;16.55;47.44
66857;BME280;53766;50.280;19.160;2023-02-12T11:30:32;100345.66;;;16.57;47.30
66857;BME280;53766;50.280;19.160;2023-02-12T11:33:16;100343.88;;;16.57;47.20
66857;BME280;53766;50.280;19.160;2023-02-12T11:35:47;100345.66;;;16.57;47.11
66857;BME280;53766;50.280;19.160;2023-02-12T11:44:20;100342.03;;;16.58;47.17
66857;BME280;53766;50.280;19.160;2023-02-12T11:46:49;100343.72;;;16.59;47.13
66857;BME280;53766;50.280;19.160;2023-02-12T11:49:22;100339.09;;;16.61;47.09
66857;BME280;53766;50.280;19.160;2023-02-12T11:51:51;100336.41;;;16.61;47.22
66857;BME280;53766;50.280;19.160;2023-02-12T11:54:21;100344.25;;;16.62;47.16
66857;BME280;53766;50.280;19.160;2023-02-12T11:56:49;100332.78;;;16.62;47.04
66857;BME280;53766;50.280;19.160;2023-02-12T11:59:20;100345.94;;;16.63;47.16
66857;BME280;53766;50.280;19.160;2023-02-12T12:01:50;100339.50;;;16.66;47.12
66857;BME280;53766;50.280;19.160;2023-02-12T12:04:21;100339.78;;;16.63;47.19
66857;BME280;53766;50.280;19.160;2023-02-12T12:06:51;100339.78;;;16.63;47.18
66857;BME280;53766;50.280;19.160;2023-02-12T12:09:23;100343.44;;;16.62;47.03
66857;BME280;53766;50.280;19.160;2023-02-12T12:14:27;100340.09;;;16.60;47.11
66857;BME280;53766;50.280;19.160;2023-02-12T12:17:03;100344.41;;;16.61;47.24
66857;BME280;53766;50.280;19.160;2023-02-12T12:20:13;100343.56;;;16.60;47.16
66857;BME280;53766;50.280;19.160;2023-02-12T12:25:14;100348.75;;;16.62;47.04
66857;BME280;53766;50.280;19.160;2023-02-12T12:27:48;100338.38;;;16.59;47.14
66857;BME280;53766;50.280;19.160;2023-02-12T12:31:09;100338.38;;;16.59;47.07
66857;BME280;53766;50.280;19.160;2023-02-12T12:33:45;100341.91;;;16.59;47.05
66857;BME280;53766;50.280;19.160;2023-02-12T12:36:31;100341.03;;;16.59;47.08
66857;BME280;53766;50.280;19.160;2023-02-12T12:42:01;100338.38;;;16.59;47.01
66857;BME280;53766;50.280;19.160;2023-02-12T12:47:32;100336.72;;;16.58;47.01
66857;BME280;53766;50.280;19.160;2023-02-12T12:52:34;100349.03;;;16.59;46.93
66857;BME280;53766;50.280;19.160;2023-02-12T13:13:48;100359.97;;;16.56;46.78
66857;BME280;53766;50.280;19.160;2023-02-12T13:21:39;100360.94;;;16.55;46.70
66857;BME280;53766;50.280;19.160;2023-02-12T13:24:15;100361.63;;;16.57;46.69
66857;BME280;53766;50.280;19.160;2023-02-12T13:29:16;100361.94;;;16.54;46.62
66857;BME280;53766;50.280;19.160;2023-02-12T13:32:04;100354.97;;;16.53;46.54
66857;BME280;53766;50.280;19.160;2023-02-12T13:34:33;100369.22;;;16.52;46.55
66857;BME280;53766;50.280;19.160;2023-02-12T13:37:03;100362.25;;;16.51;46.57
66857;BME280;53766;50.280;19.160;2023-02-12T13:39:34;100355.22;;;16.50;46.70
66857;BME280;53766;50.280;19.160;2023-02-12T13:47:36;100362.50;;;16.48;46.50
66857;BME280;53766;50.280;19.160;2023-02-12T13:55:55;100376.25;;;16.43;46.51
66857;BME280;53766;50.280;19.160;2023-02-12T14:03:26;100370.78;;;16.44;46.61
66857;BME280;53766;50.280;19.160;2023-02-12T14:06:14;100367.00;;;16.47;46.66
66857;BME280;53766;50.280;19.160;2023-02-12T14:08:43;100366.16;;;16.47;46.49
66857;BME280;53766;50.280;19.160;2023-02-12T14:11:16;100367.00;;;16.47;46.72
66857;BME280;53766;50.280;19.160;2023-02-12T14:18:47;100378.59;;;16.46;46.62
66857;BME280;53766;50.280;19.160;2023-02-12T14:23:43;100378.47;;;16.48;46.60
66857;BME280;53766;50.280;19.160;2023-02-12T14:28:41;100383.78;;;16.48;46.61
66857;BME280;53766;50.280;19.160;2023-02-12T14:33:50;100379.16;;;16.50;46.63
66857;BME280;53766;50.280;19.160;2023-02-12T14:39:25;100373.84;;;16.50;46.62
66857;BME280;53766;50.280;19.160;2023-02-12T14:41:52;100377.50;;;16.49;46.66
66857;BME280;53766;50.280;19.160;2023-02-12T14:46:52;100374.84;;;16.49;46.59
66857;BME280;53766;50.280;19.160;2023-02-12T14:49:22;100376.50;;;16.50;46.66
66857;BME280;53766;50.280;19.160;2023-02-12T14:51:56;100372.88;;;16.51;46.52
66857;BME280;53766;50.280;19.160;2023-02-12T14:54:26;100370.34;;;16.49;46.59
66857;BME280;53766;50.280;19.160;2023-02-12T14:56:55;100368.66;;;16.48;46.55
66857;BME280;53766;50.280;19.160;2023-02-12T14:59:25;100367.81;;;16.48;46.48
66857;BME280;53766;50.280;19.160;2023-02-12T15:01:52;100376.81;;;16.47;46.58
66857;BME280;53766;50.280;19.160;2023-02-12T15:04:25;100380.59;;;16.44;46.62
66857;BME280;53766;50.280;19.160;2023-02-12T15:06:58;100377.78;;;16.45;46.64
66857;BME280;53766;50.280;19.160;2023-02-12T15:09:31;100378.78;;;16.44;46.48
66857;BME280;53766;50.280;19.160;2023-02-12T15:12:04;100391.06;;;16.45;46.62
66857;BME280;53766;50.280;19.160;2023-02-12T15:14:35;100389.69;;;16.41;46.69
66857;BME280;53766;50.280;19.160;2023-02-12T15:17:09;100388.56;;;16.44;46.52
66857;BME280;53766;50.280;19.160;2023-02-12T15:22:29;100384.22;;;16.43;46.44
66857;BME280;53766;50.280;19.160;2023-02-12T15:25:13;100386.75;;;16.44;46.49